sensor_id;sensor_type;location;lat;lon;timestamp;temperature;humidity
32839;DHT22;19182;41.820;12.808;2023-06-24T00:00:13;21.70;99.90
32839;DHT22;19182;41.820;12.808;2023-06-24T00:02:39;18.80;99.90
32839;DHT22;19182;41.820;12.808;2023-06-24T00:05:09;21.70;99.90
32839;DHT22;19182;41.820;12.808;2023-06-24T00:07:34;21.60;99.90
32839;DHT22;19182;41.820;12.808;2023-06-24T00:10:12;21.60;99.90
32839;DHT22;19182;41.820;12.808;2023-06-24T00:12:38;21.50;99.90
32839;DHT22;19182;41.820;12.808;2023-06-24T00:15:06;21.50;99.90
32839;DHT22;19182;41.820;12.808;2023-06-24T00:17:33;21.50;99.90
32839;DHT22;19182;41.820;12.808;2023-06-24T00:19:58;21.50;99.90
32839;DHT22;19182;41.820;12.808;2023-06-24T00:22:24;21.60;99.90
32839;DHT22;19182;41.820;12.808;2023-06-24T00:24:49;21.60;99.90
32839;DHT22;19182;41.820;12.808;2023-06-24T00:27:16;21.60;99.90
32839;DHT22;19182;41.820;12.808;2023-06-24T00:29:42;21.40;99.90
32839;DHT22;19182;41.820;12.808;2023-06-24T00:32:08;21.30;99.90
32839;DHT22;19182;41.820;12.808;2023-06-24T00:34:34;21.20;99.90
32839;DHT22;19182;41.820;12.808;2023-06-24T00:37:00;21.20;99.90
32839;DHT22;19182;41.820;12.808;2023-06-24T00:39:28;21.30;99.90
32839;DHT22;19182;41.820;12.808;2023-06-24T00:41:53;21.40;99.90
32839;DHT22;19182;41.820;12.808;2023-06-24T00:44:19;21.20;99.90
32839;DHT22;19182;41.820;12.808;2023-06-24T00:46:45;21.10;99.90
32839;DHT22;19182;41.820;12.808;2023-06-24T00:49:11;21.10;99.90
32839;DHT22;19182;41.820;12.808;2023-06-24T00:51:41;21.00;99.90
32839;DHT22;19182;41.820;12.808;2023-06-24T00:54:16;21.00;99.90
32839;DHT22;19182;41.820;12.808;2023-06-24T00:56:42;21.10;99.90
32839;DHT22;19182;41.820;12.808;2023-06-24T00:59:10;21.10;99.90
32839;DHT22;19182;41.820;12.808;2023-06-24T01:01:38;21.00;99.90
32839;DHT22;19182;41.820;12.808;2023-06-24T01:04:06;21.10;99.90
32839;DHT22;19182;41.820;12.808;2023-06-24T01:06:34;21.00;99.90
32839;DHT22;19182;41.820;12.808;2023-06-24T01:09:00;21.10;99.90
32839;DHT22;19182;41.820;12.808;2023-06-24T01:11:28;21.20;99.90
32839;DHT22;19182;41.820;12.808;2023-06-24T01:13:54;21.30;99.90
32839;DHT22;19182;41.820;12.808;2023-06-24T01:19:02;21.30;99.90
32839;DHT22;19182;41.820;12.808;2023-06-24T01:21:54;21.30;99.90
32839;DHT22;19182;41.820;12.808;2023-06-24T01:30:32;21.20;99.90
32839;DHT22;19182;41.820;12.808;2023-06-24T01:33:04;21.20;99.90
32839;DHT22;19182;41.820;12.808;2023-06-24T01:35:35;21.10;99.90
32839;DHT22;19182;41.820;12.808;2023-06-24T01:38:15;21.10;99.90
32839;DHT22;19182;41.820;12.808;2023-06-24T01:40:46;21.10;99.90
32839;DHT22;19182;41.820;12.808;2023-06-24T01:43:14;21.10;99.90
32839;DHT22;19182;41.820;12.808;2023-06-24T01:45:43;21.00;99.90
32839;DHT22;19182;41.820;12.808;2023-06-24T01:48:24;21.00;99.90
32839;DHT22;19182;41.820;12.808;2023-06-24T01:50:59;20.90;99.90
32839;DHT22;19182;41.820;12.808;2023-06-24T01:53:27;20.80;99.90
32839;DHT22;19182;41.820;12.808;2023-06-24T01:55:54;20.80;99.90
32839;DHT22;19182;41.820;12.808;2023-06-24T01:58:22;20.80;99.90
32839;DHT22;19182;41.820;12.808;2023-06-24T02:00:49;20.80;99.90
32839;DHT22;19182;41.820;12.808;2023-06-24T02:03:15;20.80;99.90
32839;DHT22;19182;41.820;12.808;2023-06-24T02:05:43;20.80;99.90
32839;DHT22;19182;41.820;12.808;2023-06-24T02:08:10;20.70;99.90
32839;DHT22;19182;41.820;12.808;2023-06-24T02:10:38;20.50;99.90
32839;DHT22;19182;41.820;12.808;2023-06-24T02:13:05;20.40;99.90
32839;DHT22;19182;41.820;12.808;2023-06-24T02:15:33;20.30;99.90
32839;DHT22;19182;41.820;12.808;2023-06-24T02:18:02;20.40;99.90
32839;DHT22;19182;41.820;12.808;2023-06-24T02:20:30;20.40;99.90
32839;DHT22;19182;41.820;12.808;2023-06-24T02:22:57;20.50;99.90
32839;DHT22;19182;41.820;12.808;2023-06-24T02:25:25;22.20;99.90
32839;DHT22;19182;41.820;12.808;2023-06-24T02:27:52;20.50;99.90
32839;DHT22;19182;41.820;12.808;2023-06-24T02:30:20;20.50;99.90
32839;DHT22;19182;41.820;12.808;2023-06-24T02:32:46;20.50;99.90
32839;DHT22;19182;41.820;12.808;2023-06-24T02:35:12;20.40;99.90
32839;DHT22;19182;41.820;12.808;2023-06-24T02:37:38;20.30;99.90
32839;DHT22;19182;41.820;12.808;2023-06-24T02:40:05;20.40;99.90
32839;DHT22;19182;41.820;12.808;2023-06-24T02:42:31;20.40;99.90
32839;DHT22;19182;41.820;12.808;2023-06-24T02:44:57;20.50;99.90
32839;DHT22;19182;41.820;12.808;2023-06-24T02:47:24;20.40;99.90
32839;DHT22;19182;41.820;12.808;2023-06-24T02:49:50;20.50;99.90
32839;DHT22;19182;41.820;12.808;2023-06-24T02:52:16;20.70;99.90
32839;DHT22;19182;41.820;12.808;2023-06-24T02:54:43;20.70;99.90
32839;DHT22;19182;41.820;12.808;2023-06-24T02:57:09;20.80;99.90
32839;DHT22;19182;41.820;12.808;2023-06-24T02:59:36;20.80;99.90
32839;DHT22;19182;41.820;12.808;2023-06-24T03:02:03;20.60;99.90
32839;DHT22;19182;41.820;12.808;2023-06-24T03:04:30;20.70;99.90
32839;DHT22;19182;41.820;12.808;2023-06-24T03:06:56;20.70;99.90
32839;DHT22;19182;41.820;12.808;2023-06-24T03:09:26;20.80;99.90
32839;DHT22;19182;41.820;12.808;2023-06-24T03:11:52;20.90;99.90
32839;DHT22;19182;41.820;12.808;2023-06-24T03:14:18;20.80;99.90
32839;DHT22;19182;41.820;12.808;2023-06-24T03:16:44;20.90;99.90
32839;DHT22;19182;41.820;12.808;2023-06-24T03:19:09;21.00;99.90
32839;DHT22;19182;41.820;12.808;2023-06-24T03:21:35;21.10;99.90
32839;DHT22;19182;41.820;12.808;2023-06-24T03:24:03;21.10;99.90
32839;DHT22;19182;41.820;12.808;2023-06-24T03:26:32;21.00;99.90
32839;DHT22;19182;41.820;12.808;2023-06-24T03:29:00;21.10;99.90
32839;DHT22;19182;41.820;12.808;2023-06-24T03:31:27;21.10;99.90
32839;DHT22;19182;41.820;12.808;2023-06-24T03:33:53;21.20;99.90
32839;DHT22;19182;41.820;12.808;2023-06-24T03:36:19;21.30;99.90
32839;DHT22;19182;41.820;12.808;2023-06-24T03:38:45;21.30;99.90
32839;DHT22;19182;41.820;12.808;2023-06-24T03:41:11;21.30;99.90
32839;DHT22;19182;41.820;12.808;2023-06-24T03:43:37;21.30;99.90
32839;DHT22;19182;41.820;12.808;2023-06-24T03:46:02;21.30;99.90
32839;DHT22;19182;41.820;12.808;2023-06-24T03:48:28;21.40;99.90
32839;DHT22;19182;41.820;12.808;2023-06-24T03:50:55;21.50;99.90
32839;DHT22;19182;41.820;12.808;2023-06-24T03:53:21;21.50;99.90
32839;DHT22;19182;41.820;12.808;2023-06-24T03:55:46;21.50;99.90
32839;DHT22;19182;41.820;12.808;2023-06-24T03:58:12;21.60;99.90
32839;DHT22;19182;41.820;12.808;2023-06-24T04:00:39;21.70;99.90
32839;DHT22;19182;41.820;12.808;2023-06-24T04:03:08;21.80;99.90
32839;DHT22;19182;41.820;12.808;2023-06-24T04:05:34;21.90;99.90
32839;DHT22;19182;41.820;12.808;2023-06-24T04:08:00;21.90;99.90
32839;DHT22;19182;41.820;12.808;2023-06-24T04:10:25;21.90;99.90
32839;DHT22;19182;41.820;12.808;2023-06-24T04:12:51;22.00;99.90
32839;DHT22;19182;41.820;12.808;2023-06-24T04:15:17;22.00;99.90
32839;DHT22;19182;41.820;12.808;2023-06-24T04:17:43;21.90;99.90
32839;DHT22;19182;41.820;12.808;2023-06-24T04:20:09;20.50;99.90
32839;DHT22;19182;41.820;12.808;2023-06-24T04:22:37;21.00;99.90
32839;DHT22;19182;41.820;12.808;2023-06-24T04:25:04;22.00;99.90
32839;DHT22;19182;41.820;12.808;2023-06-24T04:27:31;22.00;99.90
32839;DHT22;19182;41.820;12.808;2023-06-24T04:29:57;22.10;99.90
32839;DHT22;19182;41.820;12.808;2023-06-24T04:32:23;22.10;99.90
32839;DHT22;19182;41.820;12.808;2023-06-24T04:34:50;22.10;99.90
32839;DHT22;19182;41.820;12.808;2023-06-24T04:37:17;22.20;99.90
32839;DHT22;19182;41.820;12.808;2023-06-24T04:39:43;21.90;99.90
32839;DHT22;19182;41.820;12.808;2023-06-24T04:42:09;21.90;99.90
32839;DHT22;19182;41.820;12.808;2023-06-24T04:44:37;21.80;99.90
32839;DHT22;19182;41.820;12.808;2023-06-24T04:47:03;21.70;99.90
32839;DHT22;19182;41.820;12.808;2023-06-24T04:49:28;21.70;99.90
32839;DHT22;19182;41.820;12.808;2023-06-24T04:51:54;21.80;99.90
32839;DHT22;19182;41.820;12.808;2023-06-24T04:54:20;21.80;99.90
32839;DHT22;19182;41.820;12.808;2023-06-24T04:56:45;21.70;99.90
32839;DHT22;19182;41.820;12.808;2023-06-24T04:59:13;21.50;99.90
32839;DHT22;19182;41.820;12.808;2023-06-24T05:01:39;21.50;99.90
32839;DHT22;19182;41.820;12.808;2023-06-24T05:04:05;21.80;99.90
32839;DHT22;19182;41.820;12.808;2023-06-24T05:06:30;21.70;99.90
32839;DHT22;19182;41.820;12.808;2023-06-24T05:08:56;21.60;99.90
32839;DHT22;19182;41.820;12.808;2023-06-24T05:11:22;21.60;99.90
32839;DHT22;19182;41.820;12.808;2023-06-24T05:13:47;21.60;99.90
32839;DHT22;19182;41.820;12.808;2023-06-24T05:16:13;21.70;99.90
32839;DHT22;19182;41.820;12.808;2023-06-24T05:18:39;21.80;99.90
32839;DHT22;19182;41.820;12.808;2023-06-24T05:21:04;21.90;99.90
32839;DHT22;19182;41.820;12.808;2023-06-24T05:23:30;21.80;99.90
32839;DHT22;19182;41.820;12.808;2023-06-24T05:25:55;22.00;99.90
32839;DHT22;19182;41.820;12.808;2023-06-24T05:28:21;22.00;99.90
32839;DHT22;19182;41.820;12.808;2023-06-24T05:30:47;21.90;99.90
32839;DHT22;19182;41.820;12.808;2023-06-24T05:33:12;22.00;99.90
32839;DHT22;19182;41.820;12.808;2023-06-24T05:35:38;22.30;99.90
32839;DHT22;19182;41.820;12.808;2023-06-24T05:38:06;22.40;99.90
32839;DHT22;19182;41.820;12.808;2023-06-24T05:40:32;22.70;99.90
32839;DHT22;19182;41.820;12.808;2023-06-24T05:42:57;22.60;99.90
32839;DHT22;19182;41.820;12.808;2023-06-24T05:45:23;23.00;99.90
32839;DHT22;19182;41.820;12.808;2023-06-24T05:47:48;23.10;99.90
32839;DHT22;19182;41.820;12.808;2023-06-24T05:50:14;23.10;99.90
32839;DHT22;19182;41.820;12.808;2023-06-24T05:52:40;23.20;99.90
32839;DHT22;19182;41.820;12.808;2023-06-24T05:55:06;23.30;99.90
32839;DHT22;19182;41.820;12.808;2023-06-24T05:57:32;23.50;99.90
32839;DHT22;19182;41.820;12.808;2023-06-24T05:59:58;23.50;99.90
32839;DHT22;19182;41.820;12.808;2023-06-24T06:02:24;23.60;99.90
32839;DHT22;19182;41.820;12.808;2023-06-24T06:04:50;23.60;99.90
32839;DHT22;19182;41.820;12.808;2023-06-24T06:07:16;23.60;99.90
32839;DHT22;19182;41.820;12.808;2023-06-24T06:09:41;23.70;99.90
32839;DHT22;19182;41.820;12.808;2023-06-24T06:12:07;23.80;99.90
32839;DHT22;19182;41.820;12.808;2023-06-24T06:14:33;23.80;99.90
32839;DHT22;19182;41.820;12.808;2023-06-24T06:16:59;23.80;99.90
32839;DHT22;19182;41.820;12.808;2023-06-24T06:19:25;23.80;99.90
32839;DHT22;19182;41.820;12.808;2023-06-24T06:21:51;23.40;99.90
32839;DHT22;19182;41.820;12.808;2023-06-24T06:24:17;23.80;99.90
32839;DHT22;19182;41.820;12.808;2023-06-24T06:26:43;23.80;99.90
32839;DHT22;19182;41.820;12.808;2023-06-24T06:29:11;23.80;99.90
32839;DHT22;19182;41.820;12.808;2023-06-24T06:31:37;23.90;99.90
32839;DHT22;19182;41.820;12.808;2023-06-24T06:34:04;23.90;99.90
32839;DHT22;19182;41.820;12.808;2023-06-24T06:36:29;24.00;99.90
32839;DHT22;19182;41.820;12.808;2023-06-24T06:38:55;24.10;99.90
32839;DHT22;19182;41.820;12.808;2023-06-24T06:41:21;24.20;99.90
32839;DHT22;19182;41.820;12.808;2023-06-24T06:43:53;24.50;99.90
32839;DHT22;19182;41.820;12.808;2023-06-24T06:46:19;24.90;99.90
32839;DHT22;19182;41.820;12.808;2023-06-24T06:48:44;25.40;99.90
32839;DHT22;19182;41.820;12.808;2023-06-24T06:51:10;25.80;99.90
32839;DHT22;19182;41.820;12.808;2023-06-24T06:53:36;26.00;99.90
32839;DHT22;19182;41.820;12.808;2023-06-24T06:56:01;25.90;99.90
32839;DHT22;19182;41.820;12.808;2023-06-24T06:58:27;25.80;99.90
32839;DHT22;19182;41.820;12.808;2023-06-24T07:00:53;25.70;99.90
32839;DHT22;19182;41.820;12.808;2023-06-24T07:03:19;25.50;99.90
32839;DHT22;19182;41.820;12.808;2023-06-24T07:05:44;25.40;99.90
32839;DHT22;19182;41.820;12.808;2023-06-24T07:08:10;25.40;99.90
32839;DHT22;19182;41.820;12.808;2023-06-24T07:10:36;25.60;99.90
32839;DHT22;19182;41.820;12.808;2023-06-24T07:13:01;25.70;99.90
32839;DHT22;19182;41.820;12.808;2023-06-24T07:15:30;26.00;99.90
32839;DHT22;19182;41.820;12.808;2023-06-24T07:17:56;26.50;99.90
32839;DHT22;19182;41.820;12.808;2023-06-24T07:20:22;27.00;99.90
32839;DHT22;19182;41.820;12.808;2023-06-24T07:22:49;27.20;99.90
32839;DHT22;19182;41.820;12.808;2023-06-24T07:25:15;27.30;99.90
32839;DHT22;19182;41.820;12.808;2023-06-24T07:27:41;27.60;99.90
32839;DHT22;19182;41.820;12.808;2023-06-24T07:30:08;27.90;99.90
32839;DHT22;19182;41.820;12.808;2023-06-24T07:32:34;27.70;99.90
32839;DHT22;19182;41.820;12.808;2023-06-24T07:35:00;27.20;99.90
32839;DHT22;19182;41.820;12.808;2023-06-24T07:37:26;27.10;99.90
32839;DHT22;19182;41.820;12.808;2023-06-24T07:39:51;26.90;99.90
32839;DHT22;19182;41.820;12.808;2023-06-24T07:42:17;26.80;99.90
32839;DHT22;19182;41.820;12.808;2023-06-24T07:44:47;27.00;99.90
32839;DHT22;19182;41.820;12.808;2023-06-24T07:47:13;27.00;99.90
32839;DHT22;19182;41.820;12.808;2023-06-24T07:49:39;26.80;99.90
32839;DHT22;19182;41.820;12.808;2023-06-24T07:52:06;27.00;99.90
32839;DHT22;19182;41.820;12.808;2023-06-24T07:54:37;27.60;99.90
32839;DHT22;19182;41.820;12.808;2023-06-24T07:57:03;28.20;99.90
32839;DHT22;19182;41.820;12.808;2023-06-24T07:59:30;27.70;99.90
32839;DHT22;19182;41.820;12.808;2023-06-24T08:01:56;29.30;99.90
32839;DHT22;19182;41.820;12.808;2023-06-24T08:04:21;29.60;99.90
32839;DHT22;19182;41.820;12.808;2023-06-24T08:06:49;30.00;99.90
32839;DHT22;19182;41.820;12.808;2023-06-24T08:09:16;31.80;99.90
32839;DHT22;19182;41.820;12.808;2023-06-24T08:11:42;30.20;99.90
32839;DHT22;19182;41.820;12.808;2023-06-24T08:14:09;30.60;99.90
32839;DHT22;19182;41.820;12.808;2023-06-24T08:16:37;30.80;99.90
32839;DHT22;19182;41.820;12.808;2023-06-24T08:19:03;31.00;99.90
32839;DHT22;19182;41.820;12.808;2023-06-24T08:21:30;31.00;99.90
32839;DHT22;19182;41.820;12.808;2023-06-24T08:23:55;30.80;99.90
32839;DHT22;19182;41.820;12.808;2023-06-24T08:26:21;30.70;99.90
32839;DHT22;19182;41.820;12.808;2023-06-24T08:28:47;30.40;99.90
32839;DHT22;19182;41.820;12.808;2023-06-24T08:31:13;30.20;99.90
32839;DHT22;19182;41.820;12.808;2023-06-24T08:33:44;29.70;99.90
32839;DHT22;19182;41.820;12.808;2023-06-24T08:36:11;29.40;99.90
32839;DHT22;19182;41.820;12.808;2023-06-24T08:38:46;29.20;99.90
32839;DHT22;19182;41.820;12.808;2023-06-24T08:41:12;29.10;99.90
32839;DHT22;19182;41.820;12.808;2023-06-24T08:43:38;29.40;99.90
32839;DHT22;19182;41.820;12.808;2023-06-24T08:46:05;29.40;99.90
32839;DHT22;19182;41.820;12.808;2023-06-24T08:48:32;29.40;99.90
32839;DHT22;19182;41.820;12.808;2023-06-24T08:51:00;29.20;99.90
32839;DHT22;19182;41.820;12.808;2023-06-24T08:53:27;29.20;99.90
32839;DHT22;19182;41.820;12.808;2023-06-24T08:55:54;29.10;99.90
32839;DHT22;19182;41.820;12.808;2023-06-24T08:58:21;29.00;99.90
32839;DHT22;19182;41.820;12.808;2023-06-24T09:00:47;28.90;99.90
32839;DHT22;19182;41.820;12.808;2023-06-24T09:03:13;29.10;99.90
32839;DHT22;19182;41.820;12.808;2023-06-24T09:05:39;29.00;99.90
32839;DHT22;19182;41.820;12.808;2023-06-24T09:08:05;29.30;99.90
32839;DHT22;19182;41.820;12.808;2023-06-24T09:10:32;29.50;99.90
32839;DHT22;19182;41.820;12.808;2023-06-24T09:13:01;30.30;99.90
32839;DHT22;19182;41.820;12.808;2023-06-24T09:15:36;30.60;99.90
32839;DHT22;19182;41.820;12.808;2023-06-24T09:18:03;31.00;99.90
32839;DHT22;19182;41.820;12.808;2023-06-24T09:20:30;31.60;99.90
32839;DHT22;19182;41.820;12.808;2023-06-24T09:23:01;32.10;99.90
32839;DHT22;19182;41.820;12.808;2023-06-24T09:25:31;32.40;99.90
32839;DHT22;19182;41.820;12.808;2023-06-24T09:28:00;32.40;99.90
32839;DHT22;19182;41.820;12.808;2023-06-24T09:30:26;29.70;99.90
32839;DHT22;19182;41.820;12.808;2023-06-24T09:32:53;32.60;99.90
32839;DHT22;19182;41.820;12.808;2023-06-24T09:35:20;33.00;99.90
32839;DHT22;19182;41.820;12.808;2023-06-24T09:37:54;33.10;99.90
32839;DHT22;19182;41.820;12.808;2023-06-24T09:40:21;33.20;99.90
32839;DHT22;19182;41.820;12.808;2023-06-24T09:42:57;33.40;99.90
32839;DHT22;19182;41.820;12.808;2023-06-24T09:45:28;33.60;99.90
32839;DHT22;19182;41.820;12.808;2023-06-24T09:47:57;33.70;99.90
32839;DHT22;19182;41.820;12.808;2023-06-24T09:50:26;33.90;99.90
32839;DHT22;19182;41.820;12.808;2023-06-24T09:52:52;33.80;99.90
32839;DHT22;19182;41.820;12.808;2023-06-24T09:55:22;33.40;99.90
32839;DHT22;19182;41.820;12.808;2023-06-24T09:57:50;33.20;99.90
32839;DHT22;19182;41.820;12.808;2023-06-24T10:00:18;33.10;99.90
32839;DHT22;19182;41.820;12.808;2023-06-24T10:02:45;33.10;99.90
32839;DHT22;19182;41.820;12.808;2023-06-24T10:05:15;33.00;99.90
32839;DHT22;19182;41.820;12.808;2023-06-24T10:07:41;33.00;99.90
32839;DHT22;19182;41.820;12.808;2023-06-24T10:10:08;33.40;99.90
32839;DHT22;19182;41.820;12.808;2023-06-24T10:12:35;33.40;99.90
32839;DHT22;19182;41.820;12.808;2023-06-24T10:15:02;33.40;99.90
32839;DHT22;19182;41.820;12.808;2023-06-24T10:17:29;33.80;99.90
32839;DHT22;19182;41.820;12.808;2023-06-24T10:19:55;34.10;99.90
32839;DHT22;19182;41.820;12.808;2023-06-24T10:22:24;33.90;99.90
32839;DHT22;19182;41.820;12.808;2023-06-24T10:24:52;33.90;99.90
32839;DHT22;19182;41.820;12.808;2023-06-24T10:27:20;34.00;99.90
32839;DHT22;19182;41.820;12.808;2023-06-24T10:29:51;33.80;99.90
32839;DHT22;19182;41.820;12.808;2023-06-24T10:32:18;33.70;99.90
32839;DHT22;19182;41.820;12.808;2023-06-24T10:34:46;35.30;99.90
32839;DHT22;19182;41.820;12.808;2023-06-24T10:37:20;33.60;99.90
32839;DHT22;19182;41.820;12.808;2023-06-24T10:39:52;35.00;99.90
32839;DHT22;19182;41.820;12.808;2023-06-24T10:44:52;33.90;99.90
32839;DHT22;19182;41.820;12.808;2023-06-24T10:47:49;34.20;99.90
32839;DHT22;19182;41.820;12.808;2023-06-24T10:50:19;34.30;99.90
32839;DHT22;19182;41.820;12.808;2023-06-24T10:52:47;33.90;99.90
32839;DHT22;19182;41.820;12.808;2023-06-24T10:55:17;33.70;99.90
32839;DHT22;19182;41.820;12.808;2023-06-24T10:57:43;33.60;99.90
32839;DHT22;19182;41.820;12.808;2023-06-24T11:00:10;33.70;99.90
32839;DHT22;19182;41.820;12.808;2023-06-24T11:02:36;33.90;99.90
32839;DHT22;19182;41.820;12.808;2023-06-24T11:05:03;34.00;99.90
32839;DHT22;19182;41.820;12.808;2023-06-24T11:21:29;34.40;99.90
32839;DHT22;19182;41.820;12.808;2023-06-24T11:24:00;34.10;99.90
32839;DHT22;19182;41.820;12.808;2023-06-24T11:26:27;34.30;99.90
32839;DHT22;19182;41.820;12.808;2023-06-24T11:28:53;34.50;99.90
32839;DHT22;19182;41.820;12.808;2023-06-24T11:31:18;34.20;99.90
32839;DHT22;19182;41.820;12.808;2023-06-24T11:33:50;33.70;99.90
32839;DHT22;19182;41.820;12.808;2023-06-24T11:36:19;33.00;99.90
32839;DHT22;19182;41.820;12.808;2023-06-24T11:38:47;32.80;99.90
32839;DHT22;19182;41.820;12.808;2023-06-24T11:41:13;33.10;99.90
32839;DHT22;19182;41.820;12.808;2023-06-24T11:43:46;33.50;99.90
32839;DHT22;19182;41.820;12.808;2023-06-24T11:46:27;33.50;99.90
32839;DHT22;19182;41.820;12.808;2023-06-24T11:49:03;32.90;99.90
32839;DHT22;19182;41.820;12.808;2023-06-24T11:51:29;32.80;99.90
32839;DHT22;19182;41.820;12.808;2023-06-24T11:53:59;33.10;99.90
32839;DHT22;19182;41.820;12.808;2023-06-24T11:56:37;33.20;99.90
32839;DHT22;19182;41.820;12.808;2023-06-24T11:59:07;32.70;99.90
32839;DHT22;19182;41.820;12.808;2023-06-24T12:01:33;33.10;99.90
32839;DHT22;19182;41.820;12.808;2023-06-24T12:04:14;33.50;99.90
32839;DHT22;19182;41.820;12.808;2023-06-24T12:06:40;34.00;99.90
32839;DHT22;19182;41.820;12.808;2023-06-24T12:09:08;33.50;99.90
32839;DHT22;19182;41.820;12.808;2023-06-24T12:11:41;33.20;99.90
32839;DHT22;19182;41.820;12.808;2023-06-24T12:14:07;33.10;99.90
32839;DHT22;19182;41.820;12.808;2023-06-24T12:16:32;33.00;99.90
32839;DHT22;19182;41.820;12.808;2023-06-24T12:18:58;33.00;99.90
32839;DHT22;19182;41.820;12.808;2023-06-24T12:21:24;32.70;99.90
32839;DHT22;19182;41.820;12.808;2023-06-24T12:23:49;32.90;99.90
32839;DHT22;19182;41.820;12.808;2023-06-24T12:26:15;33.20;99.90
32839;DHT22;19182;41.820;12.808;2023-06-24T12:28:42;33.10;99.90
32839;DHT22;19182;41.820;12.808;2023-06-24T12:31:11;33.00;99.90
32839;DHT22;19182;41.820;12.808;2023-06-24T12:33:37;33.00;99.90
32839;DHT22;19182;41.820;12.808;2023-06-24T12:36:03;32.90;99.90
32839;DHT22;19182;41.820;12.808;2023-06-24T12:38:29;32.80;99.90
32839;DHT22;19182;41.820;12.808;2023-06-24T12:40:54;32.80;99.90
32839;DHT22;19182;41.820;12.808;2023-06-24T12:43:20;32.80;99.90
32839;DHT22;19182;41.820;12.808;2023-06-24T12:45:45;33.20;99.90
32839;DHT22;19182;41.820;12.808;2023-06-24T12:48:14;33.50;99.90
32839;DHT22;19182;41.820;12.808;2023-06-24T12:50:39;33.40;99.90
32839;DHT22;19182;41.820;12.808;2023-06-24T12:53:05;33.50;99.90
32839;DHT22;19182;41.820;12.808;2023-06-24T12:55:31;33.70;99.90
32839;DHT22;19182;41.820;12.808;2023-06-24T12:57:57;33.80;99.90
32839;DHT22;19182;41.820;12.808;2023-06-24T13:00:25;33.80;99.90
32839;DHT22;19182;41.820;12.808;2023-06-24T13:02:51;33.40;99.90
32839;DHT22;19182;41.820;12.808;2023-06-24T13:05:17;33.00;99.90
32839;DHT22;19182;41.820;12.808;2023-06-24T13:07:43;32.90;99.90
32839;DHT22;19182;41.820;12.808;2023-06-24T13:10:09;32.90;99.90
32839;DHT22;19182;41.820;12.808;2023-06-24T13:12:36;32.00;99.90
32839;DHT22;19182;41.820;12.808;2023-06-24T13:15:06;31.50;99.90
32839;DHT22;19182;41.820;12.808;2023-06-24T13:17:32;31.10;99.90
32839;DHT22;19182;41.820;12.808;2023-06-24T13:19:58;31.20;99.90
32839;DHT22;19182;41.820;12.808;2023-06-24T13:22:24;31.70;99.90
32839;DHT22;19182;41.820;12.808;2023-06-24T13:24:50;32.30;99.90
32839;DHT22;19182;41.820;12.808;2023-06-24T13:27:16;32.90;99.90
32839;DHT22;19182;41.820;12.808;2023-06-24T13:29:43;33.10;99.90
32839;DHT22;19182;41.820;12.808;2023-06-24T13:32:09;32.90;99.90
32839;DHT22;19182;41.820;12.808;2023-06-24T13:34:36;32.80;99.90
32839;DHT22;19182;41.820;12.808;2023-06-24T13:37:02;32.40;99.90
32839;DHT22;19182;41.820;12.808;2023-06-24T13:39:28;32.30;99.90
32839;DHT22;19182;41.820;12.808;2023-06-24T13:41:56;32.10;99.90
32839;DHT22;19182;41.820;12.808;2023-06-24T13:44:22;31.80;99.90
32839;DHT22;19182;41.820;12.808;2023-06-24T13:46:49;31.60;99.90
32839;DHT22;19182;41.820;12.808;2023-06-24T13:49:15;31.60;99.90
32839;DHT22;19182;41.820;12.808;2023-06-24T13:51:42;31.20;99.90
32839;DHT22;19182;41.820;12.808;2023-06-24T13:54:08;31.00;99.90
32839;DHT22;19182;41.820;12.808;2023-06-24T13:56:33;30.90;99.90
32839;DHT22;19182;41.820;12.808;2023-06-24T13:58:59;30.00;99.90
32839;DHT22;19182;41.820;12.808;2023-06-24T14:01:25;28.80;99.90
32839;DHT22;19182;41.820;12.808;2023-06-24T14:03:54;27.90;99.90
32839;DHT22;19182;41.820;12.808;2023-06-24T14:06:22;27.20;99.90
32839;DHT22;19182;41.820;12.808;2023-06-24T14:08:48;26.70;99.90
32839;DHT22;19182;41.820;12.808;2023-06-24T14:11:15;24.40;99.90
32839;DHT22;19182;41.820;12.808;2023-06-24T14:13:41;26.30;99.90
32839;DHT22;19182;41.820;12.808;2023-06-24T14:16:07;26.00;99.90
32839;DHT22;19182;41.820;12.808;2023-06-24T14:18:33;26.00;99.90
32839;DHT22;19182;41.820;12.808;2023-06-24T14:21:00;25.60;99.90
32839;DHT22;19182;41.820;12.808;2023-06-24T14:23:27;25.40;99.90
32839;DHT22;19182;41.820;12.808;2023-06-24T14:25:53;25.30;99.90
32839;DHT22;19182;41.820;12.808;2023-06-24T14:28:20;25.00;99.90
32839;DHT22;19182;41.820;12.808;2023-06-24T14:30:45;24.90;99.90
32839;DHT22;19182;41.820;12.808;2023-06-24T14:33:12;25.20;99.90
32839;DHT22;19182;41.820;12.808;2023-06-24T14:35:38;25.80;99.90
32839;DHT22;19182;41.820;12.808;2023-06-24T14:38:04;26.10;99.90
32839;DHT22;19182;41.820;12.808;2023-06-24T14:40:31;26.30;99.90
32839;DHT22;19182;41.820;12.808;2023-06-24T14:42:57;25.90;99.90
32839;DHT22;19182;41.820;12.808;2023-06-24T14:45:23;26.10;99.90
32839;DHT22;19182;41.820;12.808;2023-06-24T14:47:48;26.00;99.90
32839;DHT22;19182;41.820;12.808;2023-06-24T14:50:14;25.60;99.90
32839;DHT22;19182;41.820;12.808;2023-06-24T14:52:40;25.60;99.90
32839;DHT22;19182;41.820;12.808;2023-06-24T14:55:06;25.40;99.90
32839;DHT22;19182;41.820;12.808;2023-06-24T14:57:34;25.00;99.90
32839;DHT22;19182;41.820;12.808;2023-06-24T15:00:00;24.90;99.90
32839;DHT22;19182;41.820;12.808;2023-06-24T15:02:26;25.00;99.90
32839;DHT22;19182;41.820;12.808;2023-06-24T15:04:52;25.10;99.90
32839;DHT22;19182;41.820;12.808;2023-06-24T15:07:18;25.50;99.90
32839;DHT22;19182;41.820;12.808;2023-06-24T15:09:45;25.40;99.90
32839;DHT22;19182;41.820;12.808;2023-06-24T15:12:11;25.30;99.90
32839;DHT22;19182;41.820;12.808;2023-06-24T15:14:37;25.20;99.90
32839;DHT22;19182;41.820;12.808;2023-06-24T15:17:03;25.00;99.90
32839;DHT22;19182;41.820;12.808;2023-06-24T15:19:30;25.00;99.90
32839;DHT22;19182;41.820;12.808;2023-06-24T15:21:56;24.90;99.90
32839;DHT22;19182;41.820;12.808;2023-06-24T15:24:21;24.80;99.90
32839;DHT22;19182;41.820;12.808;2023-06-24T15:26:50;24.80;99.90
32839;DHT22;19182;41.820;12.808;2023-06-24T15:29:15;25.10;99.90
32839;DHT22;19182;41.820;12.808;2023-06-24T15:31:42;25.40;99.90
32839;DHT22;19182;41.820;12.808;2023-06-24T15:34:10;25.60;99.90
32839;DHT22;19182;41.820;12.808;2023-06-24T15:36:36;25.50;99.90
32839;DHT22;19182;41.820;12.808;2023-06-24T15:39:02;25.50;99.90